sensor_id;sensor_type;location;lat;lon;timestamp;pressure;altitude;pressure_sealevel;temperature;humidity
61757;BME280;57225;61.460;24.060;2022-12-07T00:02:38;99342.38;;;-1.44;100.00
61757;BME280;57225;61.460;24.060;2022-12-07T00:05:22;99341.69;;;-1.53;100.00
61757;BME280;57225;61.460;24.060;2022-12-07T00:08:06;99340.66;;;-1.61;100.00
61757;BME280;57225;61.460;24.060;2022-12-07T00:10:50;99339.97;;;-1.58;100.00
61757;BME280;57225;61.460;24.060;2022-12-07T00:13:34;99334.06;;;-1.60;100.00
61757;BME280;57225;61.460;24.060;2022-12-07T00:16:19;99332.72;;;-1.54;100.00
61757;BME280;57225;61.460;24.060;2022-12-07T00:19:03;99329.19;;;-1.54;100.00
61757;BME280;57225;61.460;24.060;2022-12-07T00:21:47;99338.28;;;-1.50;100.00
61757;BME280;57225;61.460;24.060;2022-12-07T00:24:32;99329.19;;;-1.54;100.00
61757;BME280;57225;61.460;24.060;2022-12-07T00:27:16;99336.81;;;-1.48;100.00
61757;BME280;57225;61.460;24.060;2022-12-07T00:30:00;99330.88;;;-1.50;100.00
61757;BME280;57225;61.460;24.060;2022-12-07T00:32:44;99335.91;;;-1.52;100.00
61757;BME280;57225;61.460;24.060;2022-12-07T00:35:27;99329.63;;;-1.52;100.00
61757;BME280;57225;61.460;24.060;2022-12-07T00:38:11;99334.53;;;-1.46;100.00
61757;BME280;57225;61.460;24.060;2022-12-07T00:40:59;99335.66;;;-1.47;100.00
61757;BME280;57225;61.460;24.060;2022-12-07T00:43:44;99337.25;;;-1.46;100.00
61757;BME280;57225;61.460;24.060;2022-12-07T00:46:28;99340.78;;;-1.45;100.00
61757;BME280;57225;61.460;24.060;2022-12-07T00:49:12;99338.84;;;-1.45;100.00
61757;BME280;57225;61.460;24.060;2022-12-07T00:51:56;99344.44;;;-1.41;100.00
61757;BME280;57225;61.460;24.060;2022-12-07T00:54:40;99343.63;;;-1.42;100.00
61757;BME280;57225;61.460;24.060;2022-12-07T00:57:24;99346.81;;;-1.40;100.00
61757;BME280;57225;61.460;24.060;2022-12-07T01:00:08;99350.13;;;-1.46;100.00
61757;BME280;57225;61.460;24.060;2022-12-07T01:02:52;99350.13;;;-1.46;100.00
61757;BME280;57225;61.460;24.060;2022-12-07T01:05:36;99346.94;;;-1.48;100.00
61757;BME280;57225;61.460;24.060;2022-12-07T01:08:20;99339.06;;;-1.50;100.00
61757;BME280;57225;61.460;24.060;2022-12-07T01:11:05;99343.63;;;-1.54;100.00
61757;BME280;57225;61.460;24.060;2022-12-07T01:13:50;99336.66;;;-1.51;100.00
61757;BME280;57225;61.460;24.060;2022-12-07T01:16:34;99344.09;;;-1.52;100.00
61757;BME280;57225;61.460;24.060;2022-12-07T01:19:18;99338.63;;;-1.52;100.00
61757;BME280;57225;61.460;24.060;2022-12-07T01:22:02;99338.75;;;-1.48;100.00
61757;BME280;57225;61.460;24.060;2022-12-07T01:24:46;99335.78;;;-1.55;100.00
61757;BME280;57225;61.460;24.060;2022-12-07T01:27:32;99332.72;;;-1.66;100.00
61757;BME280;57225;61.460;24.060;2022-12-07T01:30:16;99336.69;;;-1.64;100.00
61757;BME280;57225;61.460;24.060;2022-12-07T01:33:00;99337.13;;;-1.62;100.00
61757;BME280;57225;61.460;24.060;2022-12-07T01:35:44;99340.56;;;-1.65;100.00
61757;BME280;57225;61.460;24.060;2022-12-07T01:38:29;99352.50;;;-1.69;100.00
61757;BME280;57225;61.460;24.060;2022-12-07T01:41:15;99338.59;;;-1.64;100.00
61757;BME280;57225;61.460;24.060;2022-12-07T01:44:07;99337.94;;;-1.61;100.00
61757;BME280;57225;61.460;24.060;2022-12-07T01:46:55;99335.09;;;-1.65;100.00
61757;BME280;57225;61.460;24.060;2022-12-07T01:49:41;99340.34;;;-1.59;100.00
61757;BME280;57225;61.460;24.060;2022-12-07T01:52:27;99341.13;;;-1.59;100.00
61757;BME280;57225;61.460;24.060;2022-12-07T01:55:13;99339.97;;;-1.58;100.00
61757;BME280;57225;61.460;24.060;2022-12-07T01:57:58;99334.63;;;-1.67;100.00
61757;BME280;57225;61.460;24.060;2022-12-07T02:00:43;99333.59;;;-1.74;100.00
61757;BME280;57225;61.460;24.060;2022-12-07T02:03:29;99336.81;;;-1.72;100.00
61757;BME280;57225;61.460;24.060;2022-12-07T02:06:16;99332.81;;;-1.75;100.00
61757;BME280;57225;61.460;24.060;2022-12-07T02:09:01;99341.81;;;-1.74;100.00
61757;BME280;57225;61.460;24.060;2022-12-07T02:11:45;99344.53;;;-1.74;100.00
61757;BME280;57225;61.460;24.060;2022-12-07T02:14:30;99335.88;;;-1.76;100.00
61757;BME280;57225;61.460;24.060;2022-12-07T02:17:17;99332.25;;;-1.80;100.00
61757;BME280;57225;61.460;24.060;2022-12-07T02:28:55;99329.28;;;-1.75;100.00
61757;BME280;57225;61.460;24.060;2022-12-07T02:31:46;99324.50;;;-1.78;100.00
61757;BME280;57225;61.460;24.060;2022-12-07T02:37:43;99323.00;;;-1.76;100.00
61757;BME280;57225;61.460;24.060;2022-12-07T02:40:40;99320.06;;;-1.83;100.00
61757;BME280;57225;61.460;24.060;2022-12-07T02:43:27;99322.91;;;-1.79;100.00
61757;BME280;57225;61.460;24.060;2022-12-07T02:46:15;99327.22;;;-1.90;100.00
61757;BME280;57225;61.460;24.060;2022-12-07T02:49:01;99321.41;;;-1.89;100.00
61757;BME280;57225;61.460;24.060;2022-12-07T02:51:46;99323.00;;;-1.88;100.00
61757;BME280;57225;61.460;24.060;2022-12-07T02:54:30;99316.88;;;-1.85;100.00
61757;BME280;57225;61.460;24.060;2022-12-07T02:57:29;99317.53;;;-1.88;100.00
61757;BME280;57225;61.460;24.060;2022-12-07T03:00:19;99314.03;;;-1.88;100.00
61757;BME280;57225;61.460;24.060;2022-12-07T03:03:06;99317.44;;;-1.91;100.00
61757;BME280;57225;61.460;24.060;2022-12-07T03:12:10;99308.88;;;-2.02;100.00
61757;BME280;57225;61.460;24.060;2022-12-07T03:15:16;99311.28;;;-2.00;100.00
61757;BME280;57225;61.460;24.060;2022-12-07T03:17:58;99323.09;;;-2.09;100.00
61757;BME280;57225;61.460;24.060;2022-12-07T03:20:44;99324.69;;;-2.08;100.00
61757;BME280;57225;61.460;24.060;2022-12-07T03:23:30;99331.50;;;-2.14;100.00
61757;BME280;57225;61.460;24.060;2022-12-07T03:26:17;99328.09;;;-2.11;100.00
61757;BME280;57225;61.460;24.060;2022-12-07T03:29:06;99322.97;;;-2.12;100.00
61757;BME280;57225;61.460;24.060;2022-12-07T03:31:54;99327.16;;;-2.15;100.00
61757;BME280;57225;61.460;24.060;2022-12-07T03:34:50;99323.78;;;-2.12;100.00
61757;BME280;57225;61.460;24.060;2022-12-07T03:37:38;99320.34;;;-2.09;100.00
61757;BME280;57225;61.460;24.060;2022-12-07T03:40:27;99325.03;;;-2.09;100.00
61757;BME280;57225;61.460;24.060;2022-12-07T03:43:14;99328.31;;;-2.16;100.00
61757;BME280;57225;61.460;24.060;2022-12-07T03:49:09;99321.56;;;-2.30;100.00
61757;BME280;57225;61.460;24.060;2022-12-07T03:57:42;99320.47;;;-2.17;100.00
61757;BME280;57225;61.460;24.060;2022-12-07T04:00:27;99328.09;;;-2.11;100.00
61757;BME280;57225;61.460;24.060;2022-12-07T04:03:12;99324.22;;;-2.22;100.00
61757;BME280;57225;61.460;24.060;2022-12-07T04:05:56;99327.13;;;-2.27;100.00
61757;BME280;57225;61.460;24.060;2022-12-07T04:08:41;99328.31;;;-2.28;100.00
61757;BME280;57225;61.460;24.060;2022-12-07T04:11:26;99327.84;;;-2.30;100.00
61757;BME280;57225;61.460;24.060;2022-12-07T04:14:10;99330.00;;;-2.23;100.00
61757;BME280;57225;61.460;24.060;2022-12-07T04:17:04;99328.75;;;-2.26;100.00
61757;BME280;57225;61.460;24.060;2022-12-07T04:19:48;99327.13;;;-2.27;100.00
61757;BME280;57225;61.460;24.060;2022-12-07T04:22:32;99321.44;;;-2.34;100.00
61757;BME280;57225;61.460;24.060;2022-12-07T04:25:17;99321.25;;;-2.29;100.00
61757;BME280;57225;61.460;24.060;2022-12-07T04:28:01;99329.06;;;-2.27;100.00
61757;BME280;57225;61.460;24.060;2022-12-07T04:30:45;99321.09;;;-2.32;100.00
61757;BME280;57225;61.460;24.060;2022-12-07T04:33:29;99323.84;;;-2.32;100.00
61757;BME280;57225;61.460;24.060;2022-12-07T04:36:13;99331.59;;;-2.34;100.00
61757;BME280;57225;61.460;24.060;2022-12-07T04:38:57;99329.25;;;-2.45;100.00
61757;BME280;57225;61.460;24.060;2022-12-07T04:41:41;99325.97;;;-2.38;100.00
61757;BME280;57225;61.460;24.060;2022-12-07T04:44:25;99331.31;;;-2.41;100.00
61757;BME280;57225;61.460;24.060;2022-12-07T04:47:10;99332.13;;;-2.41;100.00
61757;BME280;57225;61.460;24.060;2022-12-07T04:49:54;99335.28;;;-2.39;100.00
61757;BME280;57225;61.460;24.060;2022-12-07T04:52:38;99329.59;;;-2.46;100.00
61757;BME280;57225;61.460;24.060;2022-12-07T04:55:22;99341.44;;;-2.42;100.00
61757;BME280;57225;61.460;24.060;2022-12-07T04:58:07;99353.91;;;-2.53;100.00
61757;BME280;57225;61.460;24.060;2022-12-07T05:00:53;99352.31;;;-2.54;100.00
61757;BME280;57225;61.460;24.060;2022-12-07T05:03:37;99360.94;;;-2.52;100.00
61757;BME280;57225;61.460;24.060;2022-12-07T05:06:21;99355.41;;;-2.44;100.00
61757;BME280;57225;61.460;24.060;2022-12-07T05:09:05;99355.75;;;-2.45;100.00
61757;BME280;57225;61.460;24.060;2022-12-07T05:11:49;99347.44;;;-2.49;100.00
61757;BME280;57225;61.460;24.060;2022-12-07T05:14:34;99347.75;;;-2.50;100.00
61757;BME280;57225;61.460;24.060;2022-12-07T05:17:18;99349.47;;;-2.46;100.00
61757;BME280;57225;61.460;24.060;2022-12-07T05:20:03;99339.31;;;-2.57;100.00
61757;BME280;57225;61.460;24.060;2022-12-07T05:22:47;99343.31;;;-2.55;100.00
61757;BME280;57225;61.460;24.060;2022-12-07T05:25:31;99340.28;;;-2.53;100.00
61757;BME280;57225;61.460;24.060;2022-12-07T05:28:15;99344.72;;;-2.49;100.00
61757;BME280;57225;61.460;24.060;2022-12-07T05:30:59;99331.06;;;-2.49;100.00
61757;BME280;57225;61.460;24.060;2022-12-07T05:33:43;99331.19;;;-2.45;100.00
61757;BME280;57225;61.460;24.060;2022-12-07T05:36:27;99319.63;;;-2.42;100.00
61757;BME280;57225;61.460;24.060;2022-12-07T05:39:12;99318.50;;;-2.41;100.00
61757;BME280;57225;61.460;24.060;2022-12-07T05:41:56;99321.31;;;-2.37;100.00
61757;BME280;57225;61.460;24.060;2022-12-07T05:44:56;99318.34;;;-2.45;100.00
61757;BME280;57225;61.460;24.060;2022-12-07T05:47:39;99317.53;;;-2.45;100.00
61757;BME280;57225;61.460;24.060;2022-12-07T05:50:24;99321.41;;;-2.46;100.00
61757;BME280;57225;61.460;24.060;2022-12-07T05:53:08;99326.53;;;-2.45;100.00
61757;BME280;57225;61.460;24.060;2022-12-07T05:55:52;99327.47;;;-2.40;100.00
61757;BME280;57225;61.460;24.060;2022-12-07T05:58:36;99326.53;;;-2.45;100.00
61757;BME280;57225;61.460;24.060;2022-12-07T06:01:39;99330.56;;;-2.63;100.00
61757;BME280;57225;61.460;24.060;2022-12-07T06:04:24;99329.06;;;-2.72;100.00
61757;BME280;57225;61.460;24.060;2022-12-07T06:07:09;99325.00;;;-2.66;100.00
61757;BME280;57225;61.460;24.060;2022-12-07T06:09:53;99312.75;;;-2.60;100.00
61757;BME280;57225;61.460;24.060;2022-12-07T06:12:38;99308.53;;;-2.58;100.00
61757;BME280;57225;61.460;24.060;2022-12-07T06:15:23;99310.44;;;-2.58;100.00
61757;BME280;57225;61.460;24.060;2022-12-07T06:18:07;99309.16;;;-2.73;100.00
61757;BME280;57225;61.460;24.060;2022-12-07T06:20:51;99308.16;;;-2.89;100.00
61757;BME280;57225;61.460;24.060;2022-12-07T06:23:35;99318.75;;;-2.88;100.00
61757;BME280;57225;61.460;24.060;2022-12-07T06:26:19;99323.53;;;-2.85;100.00
61757;BME280;57225;61.460;24.060;2022-12-07T06:29:03;99329.31;;;-2.86;100.00
61757;BME280;57225;61.460;24.060;2022-12-07T06:31:47;99334.44;;;-2.85;100.00
61757;BME280;57225;61.460;24.060;2022-12-07T06:34:31;99339.53;;;-2.83;100.00
61757;BME280;57225;61.460;24.060;2022-12-07T06:37:16;99350.81;;;-2.85;100.00
61757;BME280;57225;61.460;24.060;2022-12-07T06:40:00;99352.59;;;-2.89;100.00
61757;BME280;57225;61.460;24.060;2022-12-07T06:42:44;99355.09;;;-2.84;100.00
61757;BME280;57225;61.460;24.060;2022-12-07T06:45:28;99356.66;;;-2.74;100.00
61757;BME280;57225;61.460;24.060;2022-12-07T06:48:12;99364.56;;;-2.81;100.00
61757;BME280;57225;61.460;24.060;2022-12-07T06:50:56;99361.03;;;-2.81;100.00
61757;BME280;57225;61.460;24.060;2022-12-07T06:53:40;99357.78;;;-2.75;100.00
61757;BME280;57225;61.460;24.060;2022-12-07T06:56:24;99367.06;;;-2.76;100.00
61757;BME280;57225;61.460;24.060;2022-12-07T06:59:09;99367.41;;;-2.77;100.00
61757;BME280;57225;61.460;24.060;2022-12-07T07:01:53;99375.13;;;-2.79;100.00
61757;BME280;57225;61.460;24.060;2022-12-07T07:04:37;99377.66;;;-2.74;100.00
61757;BME280;57225;61.460;24.060;2022-12-07T07:07:21;99379.53;;;-2.66;100.00
61757;BME280;57225;61.460;24.060;2022-12-07T07:10:05;99374.06;;;-2.87;100.00
61757;BME280;57225;61.460;24.060;2022-12-07T07:12:49;99373.47;;;-2.93;100.00
61757;BME280;57225;61.460;24.060;2022-12-07T07:15:34;99376.19;;;-2.93;100.00
61757;BME280;57225;61.460;24.060;2022-12-07T07:18:18;99381.31;;;-2.91;100.00
61757;BME280;57225;61.460;24.060;2022-12-07T07:21:02;99380.69;;;-2.97;100.00
61757;BME280;57225;61.460;24.060;2022-12-07T07:23:46;99384.31;;;-3.05;100.00
61757;BME280;57225;61.460;24.060;2022-12-07T07:26:30;99384.94;;;-3.08;100.00
61757;BME280;57225;61.460;24.060;2022-12-07T07:29:14;99387.56;;;-3.11;100.00
61757;BME280;57225;61.460;24.060;2022-12-07T07:31:59;99381.94;;;-3.15;100.00
61757;BME280;57225;61.460;24.060;2022-12-07T07:34:43;99388.50;;;-3.16;100.00
61757;BME280;57225;61.460;24.060;2022-12-07T07:37:27;99386.78;;;-3.20;100.00
61757;BME280;57225;61.460;24.060;2022-12-07T07:40:11;99389.84;;;-3.22;100.00
61757;BME280;57225;61.460;24.060;2022-12-07T07:42:55;99379.75;;;-3.21;100.00
61757;BME280;57225;61.460;24.060;2022-12-07T07:45:39;99379.63;;;-3.25;100.00
61757;BME280;57225;61.460;24.060;2022-12-07T07:48:24;99386.00;;;-3.21;100.00
61757;BME280;57225;61.460;24.060;2022-12-07T07:51:09;99373.50;;;-3.22;100.00
61757;BME280;57225;61.460;24.060;2022-12-07T07:53:53;99371.63;;;-3.30;100.00
61757;BME280;57225;61.460;24.060;2022-12-07T07:56:37;99378.41;;;-3.36;100.00
61757;BME280;57225;61.460;24.060;2022-12-07T07:59:21;99377.44;;;-3.40;100.00
61757;BME280;57225;61.460;24.060;2022-12-07T08:02:05;99375.72;;;-3.45;100.00
61757;BME280;57225;61.460;24.060;2022-12-07T08:04:49;99368.72;;;-3.54;100.00
61757;BME280;57225;61.460;24.060;2022-12-07T08:07:33;99371.97;;;-3.61;100.00
61757;BME280;57225;61.460;24.060;2022-12-07T08:10:17;99375.13;;;-3.59;100.00
61757;BME280;57225;61.460;24.060;2022-12-07T08:13:01;99378.38;;;-3.66;100.00
61757;BME280;57225;61.460;24.060;2022-12-07T08:15:57;99376.22;;;-3.89;100.00
61757;BME280;57225;61.460;24.060;2022-12-07T08:18:41;99368.06;;;-3.98;100.00
61757;BME280;57225;61.460;24.060;2022-12-07T08:21:26;99369.25;;;-4.08;100.00
61757;BME280;57225;61.460;24.060;2022-12-07T08:24:10;99369.25;;;-4.08;100.00
61757;BME280;57225;61.460;24.060;2022-12-07T08:26:54;99368.44;;;-4.08;100.00
61757;BME280;57225;61.460;24.060;2022-12-07T08:29:38;99367.44;;;-3.95;100.00
61757;BME280;57225;61.460;24.060;2022-12-07T08:32:22;99372.06;;;-3.87;100.00
61757;BME280;57225;61.460;24.060;2022-12-07T08:35:06;99367.56;;;-3.83;100.00
61757;BME280;57225;61.460;24.060;2022-12-07T08:37:51;99369.78;;;-3.76;100.00
61757;BME280;57225;61.460;24.060;2022-12-07T08:40:35;99377.91;;;-3.68;100.00
61757;BME280;57225;61.460;24.060;2022-12-07T08:43:19;99371.16;;;-3.61;100.00
61757;BME280;57225;61.460;24.060;2022-12-07T08:49:11;99372.09;;;-3.57;100.00
61757;BME280;57225;61.460;24.060;2022-12-07T08:51:56;99365.03;;;-3.58;100.00
61757;BME280;57225;61.460;24.060;2022-12-07T08:54:40;99362.31;;;-3.58;100.00
61757;BME280;57225;61.460;24.060;2022-12-07T08:57:26;99374.34;;;-3.59;100.00
61757;BME280;57225;61.460;24.060;2022-12-07T09:00:11;99367.63;;;-3.62;100.00
61757;BME280;57225;61.460;24.060;2022-12-07T09:03:00;99379.84;;;-3.68;100.00
61757;BME280;57225;61.460;24.060;2022-12-07T09:05:44;99384.16;;;-3.67;100.00
61757;BME280;57225;61.460;24.060;2022-12-07T09:08:29;99382.50;;;-3.59;100.00
61757;BME280;57225;61.460;24.060;2022-12-07T09:11:15;99379.13;;;-3.56;100.00
61757;BME280;57225;61.460;24.060;2022-12-07T09:13:59;99371.59;;;-3.51;100.00
61757;BME280;57225;61.460;24.060;2022-12-07T09:16:43;99373.50;;;-3.51;100.00
61757;BME280;57225;61.460;24.060;2022-12-07T09:19:27;99376.72;;;-3.49;100.00
61757;BME280;57225;61.460;24.060;2022-12-07T09:22:11;99368.25;;;-3.56;100.00
61757;BME280;57225;61.460;24.060;2022-12-07T09:24:56;99375.13;;;-3.59;100.00
61757;BME280;57225;61.460;24.060;2022-12-07T09:27:41;99373.72;;;-3.65;100.00
61757;BME280;57225;61.460;24.060;2022-12-07T09:30:26;99378.72;;;-3.67;100.00
61757;BME280;57225;61.460;24.060;2022-12-07T09:33:10;99379.97;;;-3.65;100.00
61757;BME280;57225;61.460;24.060;2022-12-07T09:35:54;99381.75;;;-3.69;100.00
61757;BME280;57225;61.460;24.060;2022-12-07T09:38:38;99392.66;;;-3.69;100.00
61757;BME280;57225;61.460;24.060;2022-12-07T09:41:23;99383.81;;;-3.66;100.00
61757;BME280;57225;61.460;24.060;2022-12-07T09:44:14;99377.06;;;-3.59;100.00
61757;BME280;57225;61.460;24.060;2022-12-07T09:47:01;99372.75;;;-3.60;100.00
61757;BME280;57225;61.460;24.060;2022-12-07T09:49:45;99366.50;;;-3.61;100.00
61757;BME280;57225;61.460;24.060;2022-12-07T09:52:29;99352.94;;;-3.70;100.00
61757;BME280;57225;61.460;24.060;2022-12-07T09:55:24;99357.56;;;-3.70;100.00
61757;BME280;57225;61.460;24.060;2022-12-07T09:58:32;99359.00;;;-3.64;100.00
61757;BME280;57225;61.460;24.060;2022-12-07T10:01:16;99362.19;;;-3.62;100.00
61757;BME280;57225;61.460;24.060;2022-12-07T10:04:14;99357.34;;;-3.56;100.00
61757;BME280;57225;61.460;24.060;2022-12-07T10:06:59;99354.25;;;-3.46;100.00
61757;BME280;57225;61.460;24.060;2022-12-07T10:09:44;99357.94;;;-3.42;100.00
61757;BME280;57225;61.460;24.060;2022-12-07T10:12:28;99350.69;;;-3.38;100.00
61757;BME280;57225;61.460;24.060;2022-12-07T10:15:12;99355.13;;;-3.34;100.00
61757;BME280;57225;61.460;24.060;2022-12-07T10:17:58;99345.31;;;-3.26;100.00
61757;BME280;57225;61.460;24.060;2022-12-07T10:20:45;99345.34;;;-3.35;100.00
61757;BME280;57225;61.460;24.060;2022-12-07T10:23:29;99341.22;;;-3.41;100.00
61757;BME280;57225;61.460;24.060;2022-12-07T10:26:21;99353.69;;;-3.31;100.00
61757;BME280;57225;61.460;24.060;2022-12-07T10:35:17;99325.59;;;-3.23;100.00
61757;BME280;57225;61.460;24.060;2022-12-07T10:38:07;99322.53;;;-3.21;100.00
61757;BME280;57225;61.460;24.060;2022-12-07T10:41:03;99311.56;;;-3.34;100.00
61757;BME280;57225;61.460;24.060;2022-12-07T10:43:50;99310.09;;;-3.31;100.00
61757;BME280;57225;61.460;24.060;2022-12-07T10:46:41;99307.31;;;-3.43;100.00
61757;BME280;57225;61.460;24.060;2022-12-07T10:55:41;99318.06;;;-3.26;100.00
61757;BME280;57225;61.460;24.060;2022-12-07T10:58:37;99317.66;;;-3.16;100.00
61757;BME280;57225;61.460;24.060;2022-12-07T11:01:30;99314.63;;;-3.14;100.00
61757;BME280;57225;61.460;24.060;2022-12-07T11:13:04;99303.41;;;-3.13;100.00
61757;BME280;57225;61.460;24.060;2022-12-07T11:16:00;99302.00;;;-3.19;100.00
61757;BME280;57225;61.460;24.060;2022-12-07T11:21:40;99315.34;;;-3.26;100.00
61757;BME280;57225;61.460;24.060;2022-12-07T11:27:24;99306.06;;;-3.25;100.00
61757;BME280;57225;61.460;24.060;2022-12-07T11:30:18;99306.84;;;-3.25;100.00
61757;BME280;57225;61.460;24.060;2022-12-07T11:35:52;99297.88;;;-3.25;100.00
61757;BME280;57225;61.460;24.060;2022-12-07T11:38:43;99290.84;;;-3.26;100.00
61757;BME280;57225;61.460;24.060;2022-12-07T11:41:31;99287.78;;;-3.25;100.00
61757;BME280;57225;61.460;24.060;2022-12-07T11:44:32;99284.91;;;-3.28;100.00
61757;BME280;57225;61.460;24.060;2022-12-07T11:47:35;99275.00;;;-3.33;100.00
61757;BME280;57225;61.460;24.060;2022-12-07T12:07:25;99256.88;;;-3.49;100.00
61757;BME280;57225;61.460;24.060;2022-12-07T12:10:30;99252.00;;;-3.65;100.00
61757;BME280;57225;61.460;24.060;2022-12-07T12:13:32;99257.16;;;-3.72;100.00
61757;BME280;57225;61.460;24.060;2022-12-07T12:21:59;99254.53;;;-3.80;100.00
61757;BME280;57225;61.460;24.060;2022-12-07T12:24:46;99249.19;;;-3.77;100.00
61757;BME280;57225;61.460;24.060;2022-12-07T12:27:35;99249.69;;;-3.75;100.00
61757;BME280;57225;61.460;24.060;2022-12-07T12:33:23;99244.34;;;-3.71;100.00
61757;BME280;57225;61.460;24.060;2022-12-07T12:39:08;99241.78;;;-3.68;100.00
61757;BME280;57225;61.460;24.060;2022-12-07T12:41:55;99240.31;;;-3.65;100.00
61757;BME280;57225;61.460;24.060;2022-12-07T12:44:40;99234.06;;;-3.66;100.00
61757;BME280;57225;61.460;24.060;2022-12-07T12:47:42;99229.31;;;-3.69;100.00
61757;BME280;57225;61.460;24.060;2022-12-07T12:50:34;99226.59;;;-3.69;100.00
61757;BME280;57225;61.460;24.060;2022-12-07T12:53:21;99222.53;;;-3.62;100.00
61757;BME280;57225;61.460;24.060;2022-12-07T13:08:05;99217.09;;;-3.62;100.00
61757;BME280;57225;61.460;24.060;2022-12-07T13:10:56;99214.56;;;-3.68;100.00
61757;BME280;57225;61.460;24.060;2022-12-07T13:17:03;99217.59;;;-3.69;100.00
61757;BME280;57225;61.460;24.060;2022-12-07T13:19:54;99216.41;;;-3.59;100.00
61757;BME280;57225;61.460;24.060;2022-12-07T13:22:39;99212.75;;;-3.63;100.00
61757;BME280;57225;61.460;24.060;2022-12-07T13:25:31;99209.56;;;-3.66;100.00
61757;BME280;57225;61.460;24.060;2022-12-07T13:28:18;99209.44;;;-3.69;100.00
61757;BME280;57225;61.460;24.060;2022-12-07T13:33:47;99203.69;;;-3.68;100.00
61757;BME280;57225;61.460;24.060;2022-12-07T13:36:37;99202.34;;;-3.61;100.00
61757;BME280;57225;61.460;24.060;2022-12-07T13:39:23;99198.22;;;-3.68;100.00
61757;BME280;57225;61.460;24.060;2022-12-07T13:42:11;99202.47;;;-3.58;100.00
61757;BME280;57225;61.460;24.060;2022-12-07T13:45:00;99189.06;;;-3.63;100.00
61757;BME280;57225;61.460;24.060;2022-12-07T13:47:46;99187.47;;;-3.64;100.00
61757;BME280;57225;61.460;24.060;2022-12-07T13:50:33;99185.88;;;-3.65;100.00
61757;BME280;57225;61.460;24.060;2022-12-07T13:53:17;99195.31;;;-3.62;100.00
61757;BME280;57225;61.460;24.060;2022-12-07T13:56:01;99193.06;;;-3.60;100.00
61757;BME280;57225;61.460;24.060;2022-12-07T13:58:45;99187.63;;;-3.60;100.00
61757;BME280;57225;61.460;24.060;2022-12-07T14:01:32;99184.25;;;-3.66;100.00
61757;BME280;57225;61.460;24.060;2022-12-07T14:04:36;99183.34;;;-3.70;100.00
61757;BME280;57225;61.460;24.060;2022-12-07T14:07:22;99188.66;;;-3.74;100.00
61757;BME280;57225;61.460;24.060;2022-12-07T14:10:22;99177.78;;;-3.74;100.00
61757;BME280;57225;61.460;24.060;2022-12-07T14:16:22;99167.41;;;-3.80;100.00
61757;BME280;57225;61.460;24.060;2022-12-07T14:22:25;99163.97;;;-3.69;100.00
61757;BME280;57225;61.460;24.060;2022-12-07T14:27:58;99157.56;;;-3.73;100.00
61757;BME280;57225;61.460;24.060;2022-12-07T14:30:42;99158.25;;;-3.76;100.00
61757;BME280;57225;61.460;24.060;2022-12-07T14:33:26;99158.72;;;-3.74;100.00
61757;BME280;57225;61.460;24.060;2022-12-07T14:36:12;99148.97;;;-3.75;100.00
61757;BME280;57225;61.460;24.060;2022-12-07T14:38:56;99152.06;;;-3.85;100.00
61757;BME280;57225;61.460;24.060;2022-12-07T14:41:43;99147.09;;;-3.83;100.00
61757;BME280;57225;61.460;24.060;2022-12-07T14:44:36;99139.78;;;-3.91;100.00
61757;BME280;57225;61.460;24.060;2022-12-07T14:47:21;99140.47;;;-3.94;100.00
61757;BME280;57225;61.460;24.060;2022-12-07T14:50:06;99133.28;;;-3.98;100.00
61757;BME280;57225;61.460;24.060;2022-12-07T14:52:58;99133.69;;;-3.88;100.00
61757;BME280;57225;61.460;24.060;2022-12-07T14:55:43;99136.88;;;-3.86;100.00
61757;BME280;57225;61.460;24.060;2022-12-07T14:58:27;99127.28;;;-3.92;100.00
61757;BME280;57225;61.460;24.060;2022-12-07T15:01:12;99128.44;;;-3.93;100.00
61757;BME280;57225;61.460;24.060;2022-12-07T15:03:56;99116.97;;;-3.98;100.00
61757;BME280;57225;61.460;24.060;2022-12-07T15:06:40;99118.69;;;-3.94;100.00
61757;BME280;57225;61.460;24.060;2022-12-07T15:09:27;99120.94;;;-3.96;100.00
61757;BME280;57225;61.460;24.060;2022-12-07T15:12:12;99100.69;;;-4.07;100.00
61757;BME280;57225;61.460;24.060;2022-12-07T15:14:56;99109.00;;;-3.83;100.00
61757;BME280;57225;61.460;24.060;2022-12-07T15:17:40;99114.09;;;-3.81;100.00
61757;BME280;57225;61.460;24.060;2022-12-07T15:20:25;99105.16;;;-3.82;100.00
61757;BME280;57225;61.460;24.060;2022-12-07T15:23:10;99108.34;;;-3.80;100.00
61757;BME280;57225;61.460;24.060;2022-12-07T15:25:55;99104.47;;;-3.79;100.00
61757;BME280;57225;61.460;24.060;2022-12-07T15:28:39;99108.41;;;-3.68;100.00
61757;BME280;57225;61.460;24.060;2022-12-07T15:31:23;99101.03;;;-3.67;100.00
61757;BME280;57225;61.460;24.060;2022-12-07T15:34:07;99102.47;;;-3.70;100.00
61757;BME280;57225;61.460;24.060;2022-12-07T15:36:51;99101.78;;;-3.67;100.00
61757;BME280;57225;61.460;24.060;2022-12-07T15:39:35;99097.03;;;-3.70;100.00
61757;BME280;57225;61.460;24.060;2022-12-07T15:42:19;99096.44;;;-3.54;100.00
61757;BME280;57225;61.460;24.060;2022-12-07T15:45:04;99097.66;;;-3.52;100.00
61757;BME280;57225;61.460;24.060;2022-12-07T15:47:48;99092.66;;;-3.62;100.00
61757;BME280;57225;61.460;24.060;2022-12-07T15:50:32;99091.59;;;-3.70;100.00
61757;BME280;57225;61.460;24.060;2022-12-07T15:53:17;99090.13;;;-3.67;100.00
61757;BME280;57225;61.460;24.060;2022-12-07T15:56:01;99093.44;;;-3.61;100.00
61757;BME280;57225;61.460;24.060;2022-12-07T15:58:45;99090.28;;;-3.51;100.00
61757;BME280;57225;61.460;24.060;2022-12-07T16:01:29;99084.38;;;-3.53;100.00
61757;BME280;57225;61.460;24.060;2022-12-07T16:04:13;99080.19;;;-3.51;100.00
61757;BME280;57225;61.460;24.060;2022-12-07T16:06:57;99081.84;;;-3.38;100.00
61757;BME280;57225;61.460;24.060;2022-12-07T16:09:42;99082.47;;;-3.53;100.00
61757;BME280;57225;61.460;24.060;2022-12-07T16:12:26;99079.28;;;-3.55;100.00
61757;BME280;57225;61.460;24.060;2022-12-07T16:15:10;99078.59;;;-3.52;100.00